Time;durP1;ratioP1;P1;durP2;ratioP2;P2;SDS_P1;SDS_P2;PMS_P1;PMS_P2;Temp;Humidity;BMP_temperature;BMP_pressure;BME280_temperature;BME280_humidity;BME280_pressure;Samples;Min_cycle;Max_cycle;Signal;HPM_P1;HPM_P2
2021/09/09 00:01:31;;;;;;;;;;;17.30;46.30;;;;;;4346493;32;20033;-38
2021/09/09 00:03:59;;;;;;;;;;;17.30;46.30;;;;;;4345961;32;20059;-38
2021/09/09 00:06:25;;;;;;;;;;;17.30;46.40;;;;;;4346366;32;20400;-38
2021/09/09 00:08:51;;;;;;;;;;;17.30;46.20;;;;;;4346263;32;20431;-39
2021/09/09 00:11:18;;;;;;;;;;;17.30;46.10;;;;;;4344553;33;19990;-38
2021/09/09 00:13:46;;;;;;;;;;;17.30;46.10;;;;;;4352252;32;19986;-39
2021/09/09 00:16:12;;;;;;;;;;;17.30;46.10;;;;;;4361111;32;19975;-38
2021/09/09 00:18:39;;;;;;;;;;;17.30;45.90;;;;;;4360590;32;20069;-38
2021/09/09 00:21:14;;;;;;;;;;;17.40;45.80;;;;;;4360480;32;20058;-38
2021/09/09 00:23:40;;;;;;;;;;;17.30;45.70;;;;;;4361006;32;19982;-38
2021/09/09 00:26:06;;;;;;;;;;;17.30;45.50;;;;;;4360718;32;19982;-39
2021/09/09 00:28:33;;;;;;;;;;;17.30;45.60;;;;;;4360535;32;19966;-39
2021/09/09 00:30:59;;;;;;;;;;;17.30;45.60;;;;;;4360673;32;20053;-39
2021/09/09 00:33:25;;;;;;;;;;;17.30;45.70;;;;;;4360640;32;19975;-39
2021/09/09 00:35:51;;;;;;;;;;;17.30;45.80;;;;;;4360427;32;19990;-39
2021/09/09 00:38:17;;;;;;;;;;;17.30;45.80;;;;;;4360462;32;19986;-38
2021/09/09 00:40:44;;;;;;;;;;;17.30;46.10;;;;;;4360850;32;19993;-38
2021/09/09 00:43:10;;;;;;;;;;;17.30;46.10;;;;;;4349534;32;20099;-38
2021/09/09 00:45:36;;;;;;;;;;;17.30;45.90;;;;;;4345584;32;20517;-39
2021/09/09 00:48:03;;;;;;;;;;;17.30;45.80;;;;;;4345494;33;20386;-38
2021/09/09 00:50:29;;;;;;;;;;;17.30;46.00;;;;;;4345512;33;19974;-38
2021/09/09 00:52:55;;;;;;;;;;;17.30;46.10;;;;;;4298224;33;20014;-38
2021/09/09 00:55:21;;;;;;;;;;;17.30;46.00;;;;;;4299332;33;20094;-39
2021/09/09 00:57:48;;;;;;;;;;;17.30;46.10;;;;;;4299051;33;19984;-39
2021/09/09 01:00:14;;;;;;;;;;;17.30;46.20;;;;;;4298995;33;19978;-38
2021/09/09 01:02:40;;;;;;;;;;;17.30;46.40;;;;;;4298956;33;19967;-38
2021/09/09 01:05:07;;;;;;;;;;;17.30;46.20;;;;;;4298739;33;20547;-38
2021/09/09 01:07:33;;;;;;;;;;;17.30;46.10;;;;;;4299094;33;19972;-38
2021/09/09 01:10:00;;;;;;;;;;;17.40;46.00;;;;;;4287014;33;19976;-38
2021/09/09 01:12:26;;;;;;;;;;;17.40;46.00;;;;;;4287359;33;19976;-38
2021/09/09 01:14:52;;;;;;;;;;;17.40;45.90;;;;;;4298826;33;19976;-38
2021/09/09 01:17:19;;;;;;;;;;;17.30;45.60;;;;;;4286751;33;19999;-38
2021/09/09 01:19:45;;;;;;;;;;;17.30;45.70;;;;;;4298675;33;20043;-39
2021/09/09 01:22:11;;;;;;;;;;;17.30;45.80;;;;;;4298522;33;19991;-39
2021/09/09 01:24:37;;;;;;;;;;;17.30;45.80;;;;;;4298421;33;20455;-38
2021/09/09 01:27:05;;;;;;;;;;;17.30;45.80;;;;;;4298361;33;20039;-38
2021/09/09 01:29:34;;;;;;;;;;;17.30;45.80;;;;;;4293300;33;20511;-38
2021/09/09 01:32:00;;;;;;;;;;;17.30;45.80;;;;;;4344761;33;19995;-38
2021/09/09 01:34:27;;;;;;;;;;;17.30;45.90;;;;;;4345187;33;20404;-38
2021/09/09 01:36:54;;;;;;;;;;;17.30;45.80;;;;;;4345221;33;19967;-38
2021/09/09 01:39:21;;;;;;;;;;;17.20;45.90;;;;;;4345101;33;20002;-37
2021/09/09 01:41:53;;;;;;;;;;;17.20;45.90;;;;;;4344529;33;19959;-38
2021/09/09 01:44:20;;;;;;;;;;;17.20;45.80;;;;;;4345155;33;19978;-39
2021/09/09 01:46:46;;;;;;;;;;;17.20;45.80;;;;;;4344742;33;19963;-38
2021/09/09 01:49:12;;;;;;;;;;;17.20;45.80;;;;;;4344331;33;20045;-38
2021/09/09 01:51:39;;;;;;;;;;;17.30;45.80;;;;;;4330925;33;20422;-38
2021/09/09 01:54:05;;;;;;;;;;;17.30;46.00;;;;;;4344540;33;19975;-38
2021/09/09 01:56:31;;;;;;;;;;;17.30;46.10;;;;;;4345038;33;20030;-38
2021/09/09 01:58:57;;;;;;;;;;;17.30;46.10;;;;;;4344604;33;20517;-38
2021/09/09 02:01:23;;;;;;;;;;;17.30;46.00;;;;;;4344626;33;20096;-39
2021/09/09 02:03:50;;;;;;;;;;;17.30;45.70;;;;;;4344406;33;20422;-39
2021/09/09 02:06:16;;;;;;;;;;;17.30;45.80;;;;;;4330551;33;20049;-39
2021/09/09 02:08:42;;;;;;;;;;;17.20;45.80;;;;;;4344333;33;19979;-39
2021/09/09 02:11:09;;;;;;;;;;;17.20;45.80;;;;;;4331168;33;19963;-38
2021/09/09 02:13:35;;;;;;;;;;;17.20;45.80;;;;;;4349294;32;20387;-38
2021/09/09 02:16:02;;;;;;;;;;;17.10;45.70;;;;;;4359701;32;20041;-38
2021/09/09 02:18:29;;;;;;;;;;;17.10;46.00;;;;;;4359584;32;19966;-39
2021/09/09 02:20:55;;;;;;;;;;;17.10;46.20;;;;;;4359180;32;19989;-38
2021/09/09 02:23:21;;;;;;;;;;;17.10;46.20;;;;;;4359267;32;19974;-38
2021/09/09 02:25:48;;;;;;;;;;;17.10;46.20;;;;;;4358977;32;20939;-38
2021/09/09 02:28:14;;;;;;;;;;;17.10;46.30;;;;;;4359033;32;19971;-38
2021/09/09 02:30:41;;;;;;;;;;;17.10;46.10;;;;;;4358783;32;20053;-39
2021/09/09 02:33:08;;;;;;;;;;;17.10;46.00;;;;;;4358758;32;20461;-38
2021/09/09 02:35:34;;;;;;;;;;;17.10;45.90;;;;;;4358934;32;20445;-39
2021/09/09 02:38:00;;;;;;;;;;;17.10;45.90;;;;;;4344887;32;20401;-38
2021/09/09 02:40:26;;;;;;;;;;;17.20;46.00;;;;;;4358834;32;20078;-38
2021/09/09 02:42:53;;;;;;;;;;;17.20;45.90;;;;;;4349530;32;20475;-38
2021/09/09 02:45:19;;;;;;;;;;;17.20;45.80;;;;;;4344033;33;20002;-37
2021/09/09 02:47:45;;;;;;;;;;;17.30;46.20;;;;;;4344084;33;19966;-38
2021/09/09 02:50:14;;;;;;;;;;;17.30;46.30;;;;;;4343752;33;19983;-38
2021/09/09 02:52:40;;;;;;;;;;;17.40;46.40;;;;;;4344031;33;19974;-38
2021/09/09 02:55:08;;;;;;;;;;;17.40;46.50;;;;;;4343576;33;19967;-39
2021/09/09 02:57:34;;;;;;;;;;;17.50;46.60;;;;;;4343563;33;19974;-38
2021/09/09 03:00:00;;;;;;;;;;;17.50;46.50;;;;;;4344120;33;19974;-38
2021/09/09 03:02:26;;;;;;;;;;;17.50;46.40;;;;;;4343717;33;20056;-38
2021/09/09 03:04:53;;;;;;;;;;;17.50;46.30;;;;;;4343668;33;20384;-38
2021/09/09 03:07:19;;;;;;;;;;;17.60;46.30;;;;;;4343597;33;19966;-38
2021/09/09 03:09:45;;;;;;;;;;;17.70;45.60;;;;;;4343994;33;20046;-37
2021/09/09 03:12:11;;;;;;;;;;;17.70;45.30;;;;;;4343448;33;19991;-38
2021/09/09 03:14:37;;;;;;;;;;;17.70;45.20;;;;;;4329689;33;20091;-41
2021/09/09 03:17:04;;;;;;;;;;;17.70;45.10;;;;;;4343420;33;19963;-38
2021/09/09 03:19:31;;;;;;;;;;;17.70;45.10;;;;;;4343891;33;19974;-39
2021/09/09 03:21:57;;;;;;;;;;;17.70;45.10;;;;;;4330095;33;20009;-39
2021/09/09 03:24:23;;;;;;;;;;;17.70;45.00;;;;;;4343485;33;20059;-39
2021/09/09 03:26:50;;;;;;;;;;;17.70;45.00;;;;;;4343401;33;20426;-37
2021/09/09 03:29:17;;;;;;;;;;;17.70;44.80;;;;;;4343249;33;19959;-38
2021/09/09 03:31:43;;;;;;;;;;;17.70;44.40;;;;;;4343610;33;19973;-38
2021/09/09 03:34:09;;;;;;;;;;;17.70;44.50;;;;;;4343236;33;19974;-37
2021/09/09 03:36:35;;;;;;;;;;;17.70;44.60;;;;;;4343477;33;19970;-45
2021/09/09 03:39:01;;;;;;;;;;;17.70;44.50;;;;;;4342922;33;19965;-38
2021/09/09 03:41:28;;;;;;;;;;;17.70;44.50;;;;;;4343423;33;20013;-38
2021/09/09 03:43:54;;;;;;;;;;;17.70;44.80;;;;;;4343587;33;20040;-38
2021/09/09 03:46:20;;;;;;;;;;;17.80;45.10;;;;;;4343421;33;20375;-38
2021/09/09 03:48:46;;;;;;;;;;;17.80;45.60;;;;;;4343262;33;20056;-38
2021/09/09 03:51:12;;;;;;;;;;;17.80;46.00;;;;;;4329484;33;20087;-39
2021/09/09 03:53:39;;;;;;;;;;;17.80;46.00;;;;;;4343114;33;20079;-38
2021/09/09 03:56:05;;;;;;;;;;;17.70;46.60;;;;;;4343433;33;19966;-38
2021/09/09 03:58:31;;;;;;;;;;;17.70;46.20;;;;;;4343131;33;19958;-39
2021/09/09 04:00:57;;;;;;;;;;;17.60;46.10;;;;;;4329431;33;19966;-39
2021/09/09 04:03:26;;;;;;;;;;;17.60;46.70;;;;;;4343088;33;20422;-39
2021/09/09 04:05:52;;;;;;;;;;;17.60;47.10;;;;;;4342684;33;20512;-38
2021/09/09 04:08:18;;;;;;;;;;;17.60;47.30;;;;;;4329264;33;19975;-38
2021/09/09 04:10:44;;;;;;;;;;;17.50;47.20;;;;;;4343115;33;20418;-38
2021/09/09 04:13:10;;;;;;;;;;;17.50;47.60;;;;;;4345552;32;19970;-37
2021/09/09 04:15:39;;;;;;;;;;;17.50;47.60;;;;;;4358542;32;20075;-37
2021/09/09 04:18:05;;;;;;;;;;;17.40;48.00;;;;;;4358306;32;20417;-36
2021/09/09 04:20:31;;;;;;;;;;;17.40;48.30;;;;;;4357929;32;19985;-37
2021/09/09 04:22:57;;;;;;;;;;;17.30;48.50;;;;;;4357343;32;20047;-36
2021/09/09 04:25:24;;;;;;;;;;;17.30;48.90;;;;;;4357920;32;20446;-37
2021/09/09 04:27:50;;;;;;;;;;;17.30;49.30;;;;;;4358391;32;20030;-37
2021/09/09 04:30:16;;;;;;;;;;;17.30;49.30;;;;;;4360573;32;19978;-38
2021/09/09 04:32:42;;;;;;;;;;;17.30;49.80;;;;;;4346470;32;19973;-38
2021/09/09 04:35:09;;;;;;;;;;;17.30;50.10;;;;;;4360568;32;19991;-38
2021/09/09 04:37:36;;;;;;;;;;;17.20;49.70;;;;;;4360346;32;20131;-37
2021/09/09 04:40:03;;;;;;;;;;;17.20;50.00;;;;;;4360522;32;19977;-37
2021/09/09 04:42:29;;;;;;;;;;;17.30;50.10;;;;;;4353766;32;19966;-36
2021/09/09 04:44:55;;;;;;;;;;;17.30;50.00;;;;;;4345339;33;19997;-39
2021/09/09 04:47:21;;;;;;;;;;;17.30;50.10;;;;;;4331686;33;19990;-40
2021/09/09 04:49:48;;;;;;;;;;;17.30;49.90;;;;;;4345677;33;20050;-39
2021/09/09 04:52:14;;;;;;;;;;;17.20;50.10;;;;;;4345218;33;19982;-37
2021/09/09 04:54:40;;;;;;;;;;;17.20;50.50;;;;;;4345693;33;19966;-38
2021/09/09 04:57:06;;;;;;;;;;;17.30;50.80;;;;;;4345439;33;20061;-38
2021/09/09 04:59:33;;;;;;;;;;;17.30;51.40;;;;;;4345480;33;20151;-37
2021/09/09 05:01:59;;;;;;;;;;;17.30;51.50;;;;;;4345315;33;19970;-37
2021/09/09 05:04:25;;;;;;;;;;;17.30;51.30;;;;;;4345369;33;20095;-38
2021/09/09 05:06:51;;;;;;;;;;;17.30;51.20;;;;;;4345188;33;19997;-38
2021/09/09 05:09:17;;;;;;;;;;;17.30;51.40;;;;;;4344897;33;20041;-37
2021/09/09 05:11:43;;;;;;;;;;;17.30;51.70;;;;;;4345285;33;20060;-37
2021/09/09 05:14:10;;;;;;;;;;;17.40;51.80;;;;;;4345239;33;19975;-37
2021/09/09 05:16:36;;;;;;;;;;;17.40;51.00;;;;;;4345060;33;19971;-37
2021/09/09 05:19:02;;;;;;;;;;;17.40;51.40;;;;;;4344950;33;19999;-36
2021/09/09 05:21:28;;;;;;;;;;;17.40;51.70;;;;;;4344980;33;20508;-39
2021/09/09 05:23:54;;;;;;;;;;;17.40;51.10;;;;;;4344937;33;20456;-36
2021/09/09 05:26:21;;;;;;;;;;;17.40;51.00;;;;;;4344762;33;19967;-37
2021/09/09 05:28:47;;;;;;;;;;;17.40;51.00;;;;;;4345037;33;19959;-35
2021/09/09 05:31:13;;;;;;;;;;;17.40;51.20;;;;;;4345257;33;20005;-36
2021/09/09 05:33:39;;;;;;;;;;;17.40;51.20;;;;;;4344949;33;19982;-36
2021/09/09 05:36:05;;;;;;;;;;;17.40;51.30;;;;;;4344641;33;20460;-36
2021/09/09 05:38:32;;;;;;;;;;;17.40;51.50;;;;;;4312095;33;20024;-35
2021/09/09 05:40:58;;;;;;;;;;;17.40;52.10;;;;;;4312693;33;19983;-35
2021/09/09 05:43:24;;;;;;;;;;;17.40;52.40;;;;;;4324629;33;20410;-36
2021/09/09 05:45:50;;;;;;;;;;;17.40;51.90;;;;;;4327592;33;19978;-38
2021/09/09 05:48:16;;;;;;;;;;;17.40;52.60;;;;;;4327043;33;19975;-39
2021/09/09 05:50:43;;;;;;;;;;;17.30;53.20;;;;;;4327285;33;20446;-39
2021/09/09 05:53:09;;;;;;;;;;;17.30;53.50;;;;;;4327360;33;20393;-40
2021/09/09 05:55:35;;;;;;;;;;;17.30;53.30;;;;;;4327097;33;19990;-39
2021/09/09 05:58:01;;;;;;;;;;;17.30;53.10;;;;;;4327364;33;20043;-39
2021/09/09 06:00:28;;;;;;;;;;;17.30;53.30;;;;;;4314509;33;19978;-38
2021/09/09 06:02:59;;;;;;;;;;;17.20;53.90;;;;;;4327091;33;20091;-39
2021/09/09 06:05:27;;;;;;;;;;;17.20;53.80;;;;;;4327100;33;19973;-39
2021/09/09 06:07:53;;;;;;;;;;;17.10;53.20;;;;;;4326759;33;20361;-39
2021/09/09 06:10:20;;;;;;;;;;;17.20;53.40;;;;;;4353787;32;20045;-39
2021/09/09 06:12:46;;;;;;;;;;;17.20;53.60;;;;;;4333438;32;19965;-39
2021/09/09 06:15:12;;;;;;;;;;;17.30;53.80;;;;;;4330870;33;19966;-42
2021/09/09 06:17:38;;;;;;;;;;;17.40;53.40;;;;;;4344497;33;19986;-40
2021/09/09 06:20:05;;;;;;;;;;;17.40;52.60;;;;;;4344030;33;19974;-40
2021/09/09 06:22:31;;;;;;;;;;;17.50;52.30;;;;;;4344037;33;20079;-39
2021/09/09 06:24:57;;;;;;;;;;;17.50;52.10;;;;;;4343973;33;19970;-39
2021/09/09 06:27:24;;;;;;;;;;;17.60;52.40;;;;;;4343957;33;19978;-39
2021/09/09 06:29:50;;;;;;;;;;;17.60;52.20;;;;;;4344187;33;19967;-40
2021/09/09 06:32:16;;;;;;;;;;;17.60;51.90;;;;;;4344165;33;20471;-39
2021/09/09 06:34:42;;;;;;;;;;;17.60;52.20;;;;;;4344552;33;19982;-39
2021/09/09 06:37:08;;;;;;;;;;;17.70;52.60;;;;;;4343813;33;20011;-40
2021/09/09 06:39:34;;;;;;;;;;;17.60;52.80;;;;;;4343570;33;20458;-39
2021/09/09 06:42:01;;;;;;;;;;;17.60;53.40;;;;;;4343589;33;20404;-39
2021/09/09 06:44:27;;;;;;;;;;;17.60;53.70;;;;;;4343463;33;20473;-37
2021/09/09 06:46:53;;;;;;;;;;;17.50;54.10;;;;;;4344071;33;20039;-38
2021/09/09 06:49:19;;;;;;;;;;;17.50;54.40;;;;;;4343690;33;19966;-37
2021/09/09 06:51:46;;;;;;;;;;;17.50;54.30;;;;;;4343754;33;19963;-39
2021/09/09 06:54:14;;;;;;;;;;;17.40;54.80;;;;;;4343860;33;19975;-38
2021/09/09 06:56:41;;;;;;;;;;;17.40;55.10;;;;;;4343799;33;19994;-39
2021/09/09 06:59:07;;;;;;;;;;;17.40;55.00;;;;;;4343608;33;20371;-40
2021/09/09 07:01:33;;;;;;;;;;;17.30;55.40;;;;;;4344023;33;19974;-39
2021/09/09 07:03:59;;;;;;;;;;;17.30;55.50;;;;;;4343869;33;19982;-39
2021/09/09 07:06:25;;;;;;;;;;;17.30;55.70;;;;;;4343776;33;19963;-39
2021/09/09 07:08:51;;;;;;;;;;;17.30;56.00;;;;;;4343677;33;20040;-38
2021/09/09 07:11:18;;;;;;;;;;;17.30;56.00;;;;;;4343716;33;20449;-40
2021/09/09 07:13:44;;;;;;;;;;;17.20;56.00;;;;;;4343567;33;19978;-40
2021/09/09 07:16:10;;;;;;;;;;;17.20;56.00;;;;;;4343447;33;20006;-39
2021/09/09 07:18:36;;;;;;;;;;;17.30;56.50;;;;;;4343460;33;19967;-38
2021/09/09 07:21:03;;;;;;;;;;;17.30;56.30;;;;;;4343499;33;19962;-38
2021/09/09 07:23:29;;;;;;;;;;;17.30;56.20;;;;;;4343495;33;19990;-39
2021/09/09 07:25:55;;;;;;;;;;;17.40;56.30;;;;;;4342959;33;20045;-37
2021/09/09 07:28:21;;;;;;;;;;;17.50;56.30;;;;;;4343058;33;20026;-40
2021/09/09 07:30:48;;;;;;;;;;;17.60;55.90;;;;;;4343189;33;20364;-38
2021/09/09 07:33:14;;;;;;;;;;;17.70;55.80;;;;;;4343159;33;19975;-38
2021/09/09 07:35:40;;;;;;;;;;;17.70;55.90;;;;;;4343584;33;20005;-38
2021/09/09 07:38:06;;;;;;;;;;;17.80;56.10;;;;;;4343705;33;19963;-38
2021/09/09 07:40:32;;;;;;;;;;;17.90;56.10;;;;;;4343591;33;19966;-36
2021/09/09 07:42:59;;;;;;;;;;;17.90;56.10;;;;;;4343537;33;19978;-37
2021/09/09 07:45:25;;;;;;;;;;;18.00;55.90;;;;;;4343097;33;19979;-37
2021/09/09 07:47:51;;;;;;;;;;;18.00;55.90;;;;;;4343117;33;20054;-38
2021/09/09 07:50:17;;;;;;;;;;;18.10;55.80;;;;;;4343256;33;20356;-37
2021/09/09 07:52:44;;;;;;;;;;;18.10;55.70;;;;;;4329783;33;19986;-36
2021/09/09 07:55:10;;;;;;;;;;;18.20;55.70;;;;;;4343349;33;20006;-36
2021/09/09 07:57:37;;;;;;;;;;;18.20;55.70;;;;;;4342990;33;20426;-37
2021/09/09 08:00:06;;;;;;;;;;;18.20;55.40;;;;;;4343154;33;20435;-36
2021/09/09 08:02:32;;;;;;;;;;;18.30;55.30;;;;;;4343598;33;20050;-36
2021/09/09 08:04:59;;;;;;;;;;;18.30;55.20;;;;;;4345695;33;20442;-35
2021/09/09 08:07:25;;;;;;;;;;;18.30;55.00;;;;;;4345718;33;20449;-37
2021/09/09 08:09:51;;;;;;;;;;;18.40;55.20;;;;;;4345878;33;20477;-35
2021/09/09 08:12:17;;;;;;;;;;;18.40;55.30;;;;;;4346264;33;19978;-36
2021/09/09 08:14:43;;;;;;;;;;;18.50;55.20;;;;;;4345943;33;19987;-37
2021/09/09 08:17:10;;;;;;;;;;;18.50;54.90;;;;;;4345511;33;20398;-36
2021/09/09 08:19:36;;;;;;;;;;;18.50;55.00;;;;;;4345950;33;19970;-38
2021/09/09 08:22:02;;;;;;;;;;;18.50;55.00;;;;;;4345937;33;19958;-33
2021/09/09 08:24:28;;;;;;;;;;;18.60;55.10;;;;;;4346077;33;19974;-37
2021/09/09 08:26:54;;;;;;;;;;;18.60;54.70;;;;;;4345472;33;19967;-36
2021/09/09 08:29:21;;;;;;;;;;;18.60;54.40;;;;;;4346001;33;19970;-36
2021/09/09 08:31:47;;;;;;;;;;;18.70;54.60;;;;;;4345695;33;19975;-36
2021/09/09 08:34:13;;;;;;;;;;;18.80;54.70;;;;;;4345554;33;19974;-36
2021/09/09 08:36:39;;;;;;;;;;;18.90;54.90;;;;;;4345372;33;20453;-36
2021/09/09 08:39:05;;;;;;;;;;;18.90;54.90;;;;;;4331340;33;19969;-35
2021/09/09 08:41:32;;;;;;;;;;;19.00;54.70;;;;;;4345720;32;20414;-35
2021/09/09 08:43:58;;;;;;;;;;;19.00;54.60;;;;;;4359752;32;20066;-37
2021/09/09 08:46:24;;;;;;;;;;;19.10;54.60;;;;;;4360218;32;19962;-36
2021/09/09 08:48:51;;;;;;;;;;;19.20;54.70;;;;;;4360112;32;20398;-35
2021/09/09 08:51:17;;;;;;;;;;;19.20;54.70;;;;;;4346205;32;19973;-37
2021/09/09 08:53:44;;;;;;;;;;;19.30;54.40;;;;;;4346262;32;19974;-35
2021/09/09 08:56:13;;;;;;;;;;;19.30;54.00;;;;;;4360049;32;19974;-37
2021/09/09 08:58:39;;;;;;;;;;;19.40;54.30;;;;;;4359696;32;20417;-38
2021/09/09 09:01:12;;;;;;;;;;;19.40;53.80;;;;;;4360119;32;20067;-38
2021/09/09 09:03:43;;;;;;;;;;;19.40;53.70;;;;;;4360161;32;19958;-36
2021/09/09 09:06:22;;;;;;;;;;;19.50;53.70;;;;;;4360123;32;20414;-36
2021/09/09 09:08:49;;;;;;;;;;;19.50;53.50;;;;;;4359854;32;20467;-35
2021/09/09 09:11:45;;;;;;;;;;;19.60;53.50;;;;;;4360109;32;20014;-36
2021/09/09 09:14:15;;;;;;;;;;;19.60;53.30;;;;;;4298054;33;20011;-36
2021/09/09 09:16:43;;;;;;;;;;;19.70;53.10;;;;;;4299190;33;19996;-35
2021/09/09 09:19:11;;;;;;;;;;;19.80;52.80;;;;;;4298939;33;19974;-37
2021/09/09 09:21:41;;;;;;;;;;;19.80;52.70;;;;;;4298524;33;19975;-37
2021/09/09 09:24:07;;;;;;;;;;;19.90;52.70;;;;;;4286710;33;19990;-36
2021/09/09 09:26:34;;;;;;;;;;;20.00;52.50;;;;;;4298752;33;19971;-36
2021/09/09 09:29:00;;;;;;;;;;;20.00;52.30;;;;;;4298497;33;19975;-36
2021/09/09 09:31:28;;;;;;;;;;;20.10;53.10;;;;;;4298807;33;20455;-36
2021/09/09 09:33:56;;;;;;;;;;;20.20;52.30;;;;;;4298634;33;19980;-38
2021/09/09 09:36:35;;;;;;;;;;;20.20;52.20;;;;;;4298638;33;19967;-36
2021/09/09 09:39:12;;;;;;;;;;;20.30;52.20;;;;;;4298669;33;20003;-36
2021/09/09 09:41:55;;;;;;;;;;;20.30;52.00;;;;;;4297058;33;19991;-37
2021/09/09 09:44:34;;;;;;;;;;;20.40;52.10;;;;;;4283717;33;20423;-37
2021/09/09 09:47:09;;;;;;;;;;;20.50;52.00;;;;;;4283970;33;19982;-36
2021/09/09 09:49:43;;;;;;;;;;;20.60;51.90;;;;;;4289423;33;20040;-37
2021/09/09 09:52:13;;;;;;;;;;;20.60;51.90;;;;;;4344744;33;20030;-36
2021/09/09 09:54:51;;;;;;;;;;;20.80;51.80;;;;;;4345020;33;19970;-37
2021/09/09 09:57:17;;;;;;;;;;;20.80;51.70;;;;;;4331273;33;20166;-38
2021/09/09 09:59:44;;;;;;;;;;;20.90;51.80;;;;;;4344323;33;19971;-37
2021/09/09 10:02:13;;;;;;;;;;;21.00;51.80;;;;;;4344512;33;20021;-37
2021/09/09 10:04:43;;;;;;;;;;;21.10;51.40;;;;;;4330854;33;20402;-36
2021/09/09 10:07:10;;;;;;;;;;;21.10;51.20;;;;;;4344539;33;19970;-36
2021/09/09 10:09:38;;;;;;;;;;;21.30;51.10;;;;;;4330696;33;20014;-35
2021/09/09 10:12:08;;;;;;;;;;;21.30;51.00;;;;;;4344376;33;20411;-35
2021/09/09 10:14:35;;;;;;;;;;;21.40;50.30;;;;;;4344363;33;20054;-36
2021/09/09 10:17:02;;;;;;;;;;;21.50;50.00;;;;;;4344006;33;19967;-38
2021/09/09 10:19:32;;;;;;;;;;;21.50;49.50;;;;;;4318340;33;20395;-36
2021/09/09 10:22:18;;;;;;;;;;;21.60;49.60;;;;;;4343850;33;20383;-38
2021/09/09 10:24:47;;;;;;;;;;;21.60;49.10;;;;;;4343725;32;20518;-37
2021/09/09 10:27:14;;;;;;;;;;;21.70;49.00;;;;;;4343574;33;19989;-38
2021/09/09 10:29:48;;;;;;;;;;;21.70;48.60;;;;;;4344263;33;19967;-38
2021/09/09 10:32:32;;;;;;;;;;;21.70;48.50;;;;;;4343728;33;19974;-38
2021/09/09 10:35:14;;;;;;;;;;;21.80;48.20;;;;;;4343921;33;20359;-38
2021/09/09 10:37:51;;;;;;;;;;;21.80;48.20;;;;;;4344030;33;20001;-36
2021/09/09 10:40:30;;;;;;;;;;;21.80;48.10;;;;;;4343811;33;19974;-39
2021/09/09 10:43:06;;;;;;;;;;;21.90;48.40;;;;;;4329994;33;19967;-36
2021/09/09 10:45:38;;;;;;;;;;;22.00;48.40;;;;;;4343840;33;20415;-37
2021/09/09 10:48:21;;;;;;;;;;;22.00;48.20;;;;;;4343563;33;19966;-38
2021/09/09 10:51:01;;;;;;;;;;;22.10;48.20;;;;;;4344016;33;19989;-37
2021/09/09 10:53:40;;;;;;;;;;;22.20;48.10;;;;;;4343720;33;19981;-38
2021/09/09 10:56:18;;;;;;;;;;;22.20;47.60;;;;;;4343912;33;20079;-38
2021/09/09 10:58:45;;;;;;;;;;;22.30;48.40;;;;;;4343957;33;20087;-38
2021/09/09 11:01:11;;;;;;;;;;;22.40;47.50;;;;;;4343755;33;20038;-38
2021/09/09 11:03:48;;;;;;;;;;;22.50;47.50;;;;;;4343456;33;19971;-38
2021/09/09 11:06:17;;;;;;;;;;;22.50;47.40;;;;;;4343578;33;20400;-37
2021/09/09 11:08:48;;;;;;;;;;;22.60;47.20;;;;;;4343726;33;19959;-38
2021/09/09 11:11:25;;;;;;;;;;;22.70;47.10;;;;;;4343384;33;19975;-39
2021/09/09 11:14:17;;;;;;;;;;;22.80;47.10;;;;;;4343561;33;19970;-37
2021/09/09 11:16:43;;;;;;;;;;;23.00;47.00;;;;;;4326879;33;20394;-37
2021/09/09 11:19:10;;;;;;;;;;;23.10;46.50;;;;;;4343194;33;19985;-38
2021/09/09 11:21:42;;;;;;;;;;;23.30;46.30;;;;;;4329983;33;19973;-39
2021/09/09 11:24:10;;;;;;;;;;;23.40;46.10;;;;;;4343424;33;20402;-38
2021/09/09 11:26:37;;;;;;;;;;;23.50;45.90;;;;;;4343248;33;20449;-37
2021/09/09 11:29:03;;;;;;;;;;;23.60;46.00;;;;;;4311079;33;19979;-38
2021/09/09 11:31:53;;;;;;;;;;;23.70;45.80;;;;;;4312011;33;19967;-38
2021/09/09 11:34:32;;;;;;;;;;;23.80;45.60;;;;;;4311213;33;20522;-38
2021/09/09 11:36:59;;;;;;;;;;;23.90;45.20;;;;;;4312169;33;19983;-39
2021/09/09 11:39:29;;;;;;;;;;;23.90;44.70;;;;;;4314422;33;20510;-41
2021/09/09 11:41:56;;;;;;;;;;;24.00;44.80;;;;;;4314575;33;19967;-38
2021/09/09 11:44:34;;;;;;;;;;;24.00;44.90;;;;;;4314449;33;19978;-38
2021/09/09 11:47:14;;;;;;;;;;;24.00;45.00;;;;;;4314767;33;19991;-38
2021/09/09 11:49:40;;;;;;;;;;;24.00;44.80;;;;;;4303698;33;20413;-38
2021/09/09 11:52:06;;;;;;;;;;;24.00;44.40;;;;;;4314089;33;20427;-42
2021/09/09 11:54:34;;;;;;;;;;;24.10;44.80;;;;;;4302295;33;20474;-39
2021/09/09 11:57:14;;;;;;;;;;;24.10;45.00;;;;;;4302106;33;19979;-41
2021/09/09 11:59:54;;;;;;;;;;;24.10;45.20;;;;;;4324992;33;19963;-39
2021/09/09 12:02:21;;;;;;;;;;;24.10;45.00;;;;;;4345958;33;20034;-39
2021/09/09 12:04:47;;;;;;;;;;;24.10;44.90;;;;;;4345859;33;20048;-39
2021/09/09 12:07:20;;;;;;;;;;;24.00;44.20;;;;;;4345598;33;20065;-39
2021/09/09 12:09:54;;;;;;;;;;;24.00;44.30;;;;;;4332029;33;20418;-38
2021/09/09 12:12:20;;;;;;;;;;;24.00;44.50;;;;;;4332479;33;19958;-38
2021/09/09 12:15:05;;;;;;;;;;;24.00;44.30;;;;;;4341184;33;20422;-39
2021/09/09 12:17:31;;;;;;;;;;;24.00;44.30;;;;;;4345623;32;20442;-38
2021/09/09 12:20:08;;;;;;;;;;;24.00;44.10;;;;;;4344151;33;19991;-38
2021/09/09 12:22:43;;;;;;;;;;;23.90;44.20;;;;;;4345695;32;19970;-39
2021/09/09 12:25:20;;;;;;;;;;;23.90;44.40;;;;;;4345785;32;19963;-39
2021/09/09 12:28:15;;;;;;;;;;;23.90;44.50;;;;;;4344128;33;19995;-39
2021/09/09 12:30:45;;;;;;;;;;;23.80;44.00;;;;;;4345755;32;19967;-39
2021/09/09 12:33:22;;;;;;;;;;;23.70;44.40;;;;;;4345706;32;19977;-38
2021/09/09 12:36:05;;;;;;;;;;;23.70;44.50;;;;;;4342677;33;20066;-39
2021/09/09 12:38:41;;;;;;;;;;;23.70;44.80;;;;;;4343145;33;20065;-38
2021/09/09 12:41:29;;;;;;;;;;;23.60;45.00;;;;;;4343391;33;19974;-38
2021/09/09 12:43:58;;;;;;;;;;;23.70;45.20;;;;;;4328181;33;19971;-38
2021/09/09 12:46:27;;;;;;;;;;;23.70;45.10;;;;;;4328094;33;20014;-40
2021/09/09 12:49:07;;;;;;;;;;;23.70;44.90;;;;;;4327655;33;20415;-38
2021/09/09 12:51:37;;;;;;;;;;;23.70;44.90;;;;;;4327926;33;20212;-38
2021/09/09 12:54:04;;;;;;;;;;;23.70;44.80;;;;;;4315837;33;20090;-39
2021/09/09 12:56:30;;;;;;;;;;;23.70;44.90;;;;;;4328235;33;19991;-38
2021/09/09 12:58:56;;;;;;;;;;;23.60;44.80;;;;;;4327883;33;19962;-38
2021/09/09 13:01:22;;;;;;;;;;;23.60;44.90;;;;;;4328083;33;19971;-38
2021/09/09 13:03:48;;;;;;;;;;;23.60;45.00;;;;;;4327655;33;20444;-38
2021/09/09 13:06:15;;;;;;;;;;;23.60;44.80;;;;;;4328148;33;20447;-38
2021/09/09 13:08:41;;;;;;;;;;;23.60;44.90;;;;;;4330515;33;19978;-38
2021/09/09 13:11:07;;;;;;;;;;;23.60;44.90;;;;;;4330585;33;19959;-38
2021/09/09 13:13:34;;;;;;;;;;;23.60;45.00;;;;;;4334299;33;20352;-38
2021/09/09 13:16:01;;;;;;;;;;;23.50;45.00;;;;;;4345133;33;19995;-38
2021/09/09 13:18:27;;;;;;;;;;;23.50;45.10;;;;;;4344935;33;19982;-39
2021/09/09 13:20:53;;;;;;;;;;;23.50;45.30;;;;;;4344744;33;20009;-38
2021/09/09 13:23:19;;;;;;;;;;;23.60;45.30;;;;;;4345123;33;20426;-38
2021/09/09 13:25:47;;;;;;;;;;;23.60;44.90;;;;;;4344947;33;20455;-39
2021/09/09 13:28:13;;;;;;;;;;;23.50;44.90;;;;;;4344605;33;19986;-38
2021/09/09 13:30:40;;;;;;;;;;;23.50;45.10;;;;;;4331312;33;20060;-38
2021/09/09 13:33:07;;;;;;;;;;;23.60;45.20;;;;;;4345093;33;19978;-39
2021/09/09 13:35:34;;;;;;;;;;;23.60;45.00;;;;;;4344514;33;20038;-39
2021/09/09 13:38:01;;;;;;;;;;;23.60;45.10;;;;;;4344584;33;19997;-37
2021/09/09 13:40:27;;;;;;;;;;;23.60;45.30;;;;;;4344601;33;20414;-38
2021/09/09 13:42:54;;;;;;;;;;;23.60;45.10;;;;;;4344467;33;20388;-38
2021/09/09 13:45:20;;;;;;;;;;;23.70;45.10;;;;;;4326853;33;19977;-38
2021/09/09 13:47:46;;;;;;;;;;;23.70;45.00;;;;;;4327330;33;19975;-39
2021/09/09 13:50:13;;;;;;;;;;;23.80;45.00;;;;;;4315331;33;19975;-38
2021/09/09 13:52:40;;;;;;;;;;;23.80;44.60;;;;;;4327489;33;20479;-37
2021/09/09 13:55:08;;;;;;;;;;;23.80;44.70;;;;;;4302670;33;20498;-48
2021/09/09 13:57:38;;;;;;;;;;;23.70;44.70;;;;;;4327202;33;19977;-39
2021/09/09 14:00:06;;;;;;;;;;;23.80;44.90;;;;;;4326984;33;20412;-38
2021/09/09 14:02:33;;;;;;;;;;;23.70;44.90;;;;;;4326932;33;19979;-39
2021/09/09 14:04:59;;;;;;;;;;;23.70;44.90;;;;;;4326477;33;20057;-38
2021/09/09 14:07:27;;;;;;;;;;;23.70;44.90;;;;;;4314295;33;19987;-38
2021/09/09 14:09:53;;;;;;;;;;;23.70;44.90;;;;;;4327001;33;19974;-39
2021/09/09 14:12:20;;;;;;;;;;;23.60;44.80;;;;;;4327377;33;20105;-38
2021/09/09 14:14:46;;;;;;;;;;;23.70;45.00;;;;;;4326470;33;20490;-38
2021/09/09 14:17:13;;;;;;;;;;;23.60;44.80;;;;;;4341570;33;19978;-37
2021/09/09 14:19:39;;;;;;;;;;;23.70;44.90;;;;;;4343986;33;19966;-38
2021/09/09 14:22:06;;;;;;;;;;;23.60;44.80;;;;;;4343517;32;20031;-38